Time;durP1;ratioP1;P1;durP2;ratioP2;P2;SDS_P1;SDS_P2;PMS_P1;PMS_P2;Temp;Humidity;BMP_temperature;BMP_pressure;BME280_temperature;BME280_humidity;BME280_pressure;Samples;Min_cycle;Max_cycle;Signal;HPM_P1;HPM_P2
2020/12/15 00:01:52;;;;;;;26.98;18.52;;;;;;;8.48;98.93;100527.25;4782759;29;20104;-87
2020/12/15 00:04:20;;;;;;;25.55;18.50;;;;;;;8.44;99.25;100532.03;4784573;29;20394;-86
2020/12/15 00:06:46;;;;;;;25.67;17.45;;;;;;;8.44;99.31;100526.66;4782235;29;20055;-86
2020/12/15 00:09:17;;;;;;;26.98;18.00;;;;;;;8.45;99.40;100530.19;4770698;29;20133;-87
2020/12/15 00:11:48;;;;;;;27.35;17.42;;;;;;;8.42;98.92;100523.22;4770713;29;20044;-87
2020/12/15 00:14:14;;;;;;;30.17;18.63;;;;;;;8.42;98.96;100523.22;4776245;29;20493;-87
2020/12/15 00:16:43;;;;;;;27.58;16.60;;;;;;;8.37;99.12;100528.97;4766420;29;20051;-87
2020/12/15 00:19:11;;;;;;;24.40;18.25;;;;;;;8.32;99.37;100517.81;4772477;29;20415;-88
2020/12/15 00:21:43;;;;;;;24.75;16.48;;;;;;;8.34;99.10;100515.00;4779788;29;20051;-86
2020/12/15 00:24:11;;;;;;;23.15;16.00;;;;;;;8.34;98.97;100505.09;4760683;29;20063;-87
2020/12/15 00:27:01;;;;;;;23.33;15.68;;;;;;;8.31;98.75;100508.06;4783638;29;20047;-87
2020/12/15 00:29:29;;;;;;;25.80;16.08;;;;;;;8.29;98.75;100507.34;4781402;29;21198;-87
2020/12/15 00:32:01;;;;;;;31.80;18.70;;;;;;;8.25;99.05;100512.09;4775305;29;20515;-87
2020/12/15 00:34:32;;;;;;;35.92;19.77;;;;;;;8.30;98.64;100519.75;4765760;29;20490;-86
2020/12/15 00:37:01;;;;;;;27.90;17.98;;;;;;;8.30;98.98;100521.59;4769220;29;20050;-86
2020/12/15 00:39:28;;;;;;;38.10;19.10;;;;;;;8.26;98.82;100523.69;4778455;29;20100;-86
2020/12/15 00:41:59;;;;;;;38.08;17.73;;;;;;;8.27;98.82;100536.09;4784175;29;20047;-88
2020/12/15 00:44:25;;;;;;;29.73;16.75;;;;;;;8.26;98.83;100531.72;4774033;29;22599;-87
2020/12/15 00:46:53;;;;;;;38.47;19.88;;;;;;;8.23;98.89;100535.53;4768193;29;20133;-87
2020/12/15 00:49:25;;;;;;;36.80;19.00;;;;;;;8.23;99.18;100526.63;4790731;29;20048;-87
2020/12/15 00:51:52;;;;;;;36.10;17.70;;;;;;;8.22;98.99;100517.72;4761696;29;20046;-87
2020/12/15 00:54:24;;;;;;;26.65;16.73;;;;;;;8.19;98.98;100522.50;4781132;29;20047;-87
2020/12/15 00:56:53;;;;;;;32.83;18.23;;;;;;;8.15;98.75;100518.38;4781070;29;20054;-87
2020/12/15 00:59:18;;;;;;;34.63;18.73;;;;;;;8.14;98.62;100524.69;4793986;29;20084;-86
2020/12/15 01:01:45;;;;;;;31.92;18.13;;;;;;;8.11;98.78;100519.59;4758782;29;20047;-87
2020/12/15 01:04:13;;;;;;;27.23;16.45;;;;;;;8.10;98.66;100515.22;4748538;29;20044;-87
2020/12/15 01:06:38;;;;;;;26.13;14.93;;;;;;;8.05;98.42;100515.59;4769698;29;20046;-87
2020/12/15 01:09:05;;;;;;;29.55;16.23;;;;;;;8.05;98.48;100515.59;4771450;29;20567;-87
2020/12/15 01:11:33;;;;;;;33.28;17.38;;;;;;;8.07;98.28;100519.88;4772369;29;20425;-87
2020/12/15 01:14:00;;;;;;;34.78;18.45;;;;;;;8.02;98.64;100511.38;4775932;29;20047;-86
2020/12/15 01:16:25;;;;;;;36.83;19.35;;;;;;;8.00;98.61;100507.94;4782920;29;20478;-87
2020/12/15 01:18:54;;;;;;;25.08;16.45;;;;;;;7.98;99.00;100501.00;4762448;29;20044;-87
2020/12/15 01:21:29;;;;;;;24.60;15.68;;;;;;;7.97;99.02;100497.50;4750737;29;20043;-87
2020/12/15 01:23:55;;;;;;;26.25;16.65;;;;;;;7.94;99.31;100505.78;4795001;29;20035;-87
2020/12/15 01:26:23;;;;;;;26.17;16.42;;;;;;;7.93;98.79;100500.56;4769924;29;20058;-87
2020/12/15 01:28:49;;;;;;;31.52;18.70;;;;;;;7.90;98.91;100504.34;4782837;29;20043;-86
2020/12/15 01:31:22;;;;;;;24.20;16.45;;;;;;;7.93;98.67;100500.56;4764259;29;20452;-87
2020/12/15 01:33:49;;;;;;;21.13;15.55;;;;;;;7.90;99.23;100488.25;4775534;29;20051;-85
2020/12/15 01:36:15;;;;;;;23.40;16.55;;;;;;;7.89;98.85;100497.25;4782096;29;20134;-86
2020/12/15 01:38:46;;;;;;;24.00;16.83;;;;;;;7.88;99.15;100498.25;4789299;29;20133;-86
2020/12/15 01:41:14;;;;;;;26.85;16.45;;;;;;;7.88;99.07;100500.94;4779179;29;20052;-87
2020/12/15 01:44:00;;;;;;;30.75;17.67;;;;;;;7.94;98.80;100502.28;4778289;29;20055;-86
2020/12/15 01:46:28;;;;;;;33.55;19.63;;;;;;;7.88;99.23;100503.63;4761767;29;20136;-86
2020/12/15 01:48:59;;;;;;;31.52;19.10;;;;;;;7.87;99.03;100501.91;4781830;29;20117;-86
2020/12/15 01:51:36;;;;;;;28.67;18.38;;;;;;;7.87;99.26;100496.56;4790773;29;20048;-86
2020/12/15 01:54:06;;;;;;;33.45;20.05;;;;;;;7.88;98.85;100499.09;4779122;29;20043;-86
2020/12/15 01:56:32;;;;;;;37.47;20.40;;;;;;;7.86;99.24;100494.84;4777968;29;20096;-84
2020/12/15 01:59:03;;;;;;;37.63;20.83;;;;;;;7.86;99.28;100489.47;4770330;29;21899;-85
2020/12/15 02:01:47;;;;;;;38.05;20.85;;;;;;;7.91;98.87;100495.31;4808493;29;20091;-85
2020/12/15 02:04:20;;;;;;;34.33;20.33;;;;;;;7.89;99.29;100494.59;4784053;29;20060;-86
2020/12/15 02:06:47;;;;;;;35.60;20.70;;;;;;;7.86;99.55;100493.03;4773529;29;20497;-86
2020/12/15 02:09:22;;;;;;;40.88;21.02;;;;;;;7.90;99.13;100507.00;4776472;29;20134;-86
2020/12/15 02:11:54;;;;;;;48.17;22.30;;;;;;;7.89;99.61;100499.94;4766912;29;20055;-86
2020/12/15 02:14:23;;;;;;;36.15;21.75;;;;;;;7.87;99.64;100504.59;4790669;29;20125;-86
2020/12/15 02:16:53;;;;;;;35.47;20.02;;;;;;;7.91;99.52;100481.09;4786456;29;20071;-86
2020/12/15 02:19:34;;;;;;;39.28;22.70;;;;;;;7.86;99.46;100489.47;4765455;29;20101;-86
2020/12/15 02:22:00;;;;;;;35.47;21.60;;;;;;;7.85;99.84;100493.16;4766450;29;20133;-86
2020/12/15 02:24:26;;;;;;;43.90;21.00;;;;;;;7.88;99.33;100498.25;4783991;29;20108;-87
2020/12/15 02:27:02;;;;;;;36.55;18.88;;;;;;;7.88;99.61;100498.25;4778130;29;20054;-86
2020/12/15 02:29:35;;;;;;;34.72;19.88;;;;;;;7.89;99.59;100500.81;4782925;29;20527;-86
2020/12/15 02:32:07;;;;;;;28.65;18.63;;;;;;;7.89;99.69;100494.59;4798537;29;20382;-86
2020/12/15 02:34:37;;;;;;;30.48;19.15;;;;;;;7.88;99.51;100487.56;4768478;29;20387;-87
2020/12/15 02:37:38;;;;;;;40.08;21.38;;;;;;;7.88;99.72;100474.16;4768376;29;20407;-87
2020/12/15 02:40:09;;;;;;;38.40;21.65;;;;;;;7.93;99.74;100479.97;4756032;29;20932;-86
2020/12/15 02:42:50;;;;;;;37.35;20.73;;;;;;;7.91;99.55;100500.69;4758522;29;20046;-86
2020/12/15 02:45:19;;;;;;;34.85;22.10;;;;;;;7.93;99.73;100508.59;4787066;29;20048;-87
2020/12/15 02:47:49;;;;;;;31.30;19.77;;;;;;;7.95;99.38;100506.63;4773637;29;20596;-86
2020/12/15 02:50:26;;;;;;;31.48;19.83;;;;;;;7.94;99.79;100519.19;4770938;29;20126;-87
2020/12/15 02:52:55;;;;;;;29.27;19.08;;;;;;;7.95;99.36;100515.53;4783719;29;20041;-85
2020/12/15 02:55:31;;;;;;;28.63;19.88;;;;;;;7.98;99.44;100507.25;4784620;29;20050;-87
2020/12/15 02:57:59;;;;;;;33.60;19.95;;;;;;;7.96;99.54;100522.56;4784434;29;20042;-87
2020/12/15 03:00:33;;;;;;;29.92;22.38;;;;;;;7.95;99.33;100520.91;4772217;29;20072;-88
2020/12/15 03:03:04;;;;;;;29.55;20.45;;;;;;;7.98;99.35;100517.97;4778644;29;20047;-86
2020/12/15 03:06:00;;;;;;;30.40;19.50;;;;;;;7.97;99.58;100521.59;4802118;29;20055;-85
2020/12/15 03:08:28;;;;;;;31.15;21.88;;;;;;;7.96;99.30;100511.84;4756508;29;20486;-87
2020/12/15 03:11:10;;;;;;;30.95;20.27;;;;;;;7.98;99.30;100512.59;4786675;29;21880;-87
2020/12/15 03:13:38;;;;;;;31.13;22.58;;;;;;;7.97;99.29;100518.94;4762689;29;20498;-85
2020/12/15 03:16:07;;;;;;;30.08;21.60;;;;;;;7.97;99.38;100518.94;4780301;29;20498;-86
2020/12/15 03:18:35;;;;;;;29.55;20.85;;;;;;;7.99;99.24;100526.84;4781789;29;20043;-86
2020/12/15 03:21:08;;;;;;;30.67;22.73;;;;;;;8.02;99.30;100538.19;4784732;29;20488;-86
2020/12/15 03:23:56;;;;;;;29.77;20.42;;;;;;;8.02;99.59;100531.94;4787845;29;20046;-85
2020/12/15 03:26:32;;;;;;;30.25;21.92;;;;;;;7.99;99.60;100527.69;4753453;29;20123;-87
2020/12/15 03:28:58;;;;;;;29.05;21.20;;;;;;;8.05;99.10;100537.91;4768565;29;20071;-86
2020/12/15 03:31:29;;;;;;;27.13;20.20;;;;;;;7.99;99.21;100530.34;4781432;29;20894;-87
2020/12/15 03:33:56;;;;;;;27.80;20.95;;;;;;;8.00;99.56;100540.13;4770366;29;20053;-86
2020/12/15 03:36:29;;;;;;;28.50;20.00;;;;;;;8.01;99.92;100536.47;4754671;29;20048;-87
2020/12/15 03:39:13;;;;;;;26.77;19.80;;;;;;;8.03;99.32;100539.84;4775424;29;20174;-86
2020/12/15 03:41:45;;;;;;;26.58;19.73;;;;;;;8.02;99.70;100542.66;4764479;29;20077;-87
2020/12/15 03:44:11;;;;;;;27.98;19.95;;;;;;;7.99;99.60;100548.28;4776260;29;20078;-84
2020/12/15 03:46:38;;;;;;;32.25;19.55;;;;;;;7.97;99.76;100537.69;4782626;29;20465;-86
2020/12/15 03:49:06;;;;;;;30.02;21.58;;;;;;;7.97;99.69;100535.00;4770677;29;20047;-86
2020/12/15 03:51:55;;;;;;;31.63;22.40;;;;;;;7.99;99.65;100542.91;4766391;29;20047;-86
2020/12/15 03:54:23;;;;;;;33.20;20.42;;;;;;;7.97;100.00;100547.56;4774414;29;20050;-87
2020/12/15 03:56:57;;;;;;;30.02;20.48;;;;;;;8.01;100.00;100551.66;4796897;29;20074;-86
2020/12/15 03:59:29;;;;;;;29.65;19.75;;;;;;;7.99;100.00;100554.47;4774426;29;20058;-87
2020/12/15 04:02:06;;;;;;;34.42;20.73;;;;;;;7.98;100.00;100558.16;4787217;29;20600;-86
2020/12/15 04:04:58;;;;;;;33.67;21.23;;;;;;;8.02;100.00;100553.38;4763416;29;20171;-87
2020/12/15 04:07:52;;;;;;;28.38;20.70;;;;;;;8.01;100.00;100554.34;4784496;29;20046;-86
2020/12/15 04:10:27;;;;;;;32.38;21.13;;;;;;;8.00;100.00;100558.88;4789365;29;20067;-87
2020/12/15 04:13:01;;;;;;;37.63;22.60;;;;;;;7.99;100.00;100559.84;4783568;29;20055;-86
2020/12/15 04:15:38;;;;;;;34.03;21.98;;;;;;;8.01;100.00;100551.66;4769563;29;20062;-86
2020/12/15 04:18:06;;;;;;;31.63;21.50;;;;;;;7.99;100.00;100551.81;4758121;29;20047;-86
2020/12/15 04:20:34;;;;;;;30.00;21.37;;;;;;;8.06;100.00;100555.69;4777856;29;20051;-86
2020/12/15 04:23:02;;;;;;;31.10;21.27;;;;;;;8.03;100.00;100550.56;4792267;29;20581;-86
2020/12/15 04:25:28;;;;;;;33.90;21.88;;;;;;;8.03;100.00;100545.22;4782166;29;20078;-86
2020/12/15 04:27:56;;;;;;;36.08;21.35;;;;;;;8.05;100.00;100548.63;4773412;29;20048;-86
2020/12/15 04:30:33;;;;;;;33.65;23.35;;;;;;;8.07;100.00;100554.72;4772193;29;20445;-87
2020/12/15 04:33:03;;;;;;;36.53;22.13;;;;;;;8.06;100.00;100555.69;4770213;29;20490;-86
2020/12/15 04:35:33;;;;;;;33.70;22.42;;;;;;;8.09;100.00;100553.75;4769901;29;20502;-87
2020/12/15 04:38:04;;;;;;;38.42;22.83;;;;;;;8.07;100.00;100556.56;4774213;29;20074;-85
2020/12/15 04:40:42;;;;;;;38.35;23.17;;;;;;;8.11;100.00;100552.59;4777174;29;20051;-87
2020/12/15 04:43:18;;;;;;;33.70;22.88;;;;;;;8.10;100.00;100561.66;4808273;29;20051;-87
2020/12/15 04:45:48;;;;;;;32.33;22.27;;;;;;;8.09;100.00;100565.31;4776920;29;20047;-86
2020/12/15 04:48:26;;;;;;;48.88;24.83;;;;;;;8.13;100.00;100560.56;4770488;29;20047;-86
2020/12/15 04:51:00;;;;;;;36.38;22.70;;;;;;;8.17;100.00;100556.63;4780676;29;20112;-86
2020/12/15 04:53:27;;;;;;;41.70;22.77;;;;;;;8.18;100.00;100563.69;4782562;29;20109;-87
2020/12/15 04:56:11;;;;;;;42.78;25.90;;;;;;;8.18;100.00;100564.53;4765492;29;20078;-85
2020/12/15 04:58:52;;;;;;;41.08;25.73;;;;;;;8.21;100.00;100568.78;4759456;29;20125;-87
2020/12/15 05:01:26;;;;;;;41.47;23.83;;;;;;;8.21;100.00;100560.75;4782422;29;20172;-86
2020/12/15 05:03:55;;;;;;;36.40;22.42;;;;;;;8.20;100.00;100564.41;4782712;29;20051;-86
2020/12/15 05:06:29;;;;;;;44.60;24.92;;;;;;;8.19;100.00;100570.75;4764673;29;20043;-86
2020/12/15 05:09:06;;;;;;;43.80;24.52;;;;;;;8.20;100.00;100564.41;4771422;29;20131;-87
2020/12/15 05:11:44;;;;;;;;;;;;;;;;;;;;;
2020/12/15 05:14:18;;;;;;;43.53;23.88;;;;;;;8.24;100.00;100561.34;4788788;29;21040;-87
2020/12/15 05:16:46;;;;;;;41.45;23.27;;;;;;;8.21;100.00;100560.75;4774579;29;20114;-87
2020/12/15 05:19:20;;;;;;;47.88;25.63;;;;;;;8.20;100.00;100551.88;4776328;29;20059;-87
2020/12/15 05:21:59;;;;;;;52.13;27.20;;;;;;;8.22;100.00;100560.63;4750782;29;20127;-87
2020/12/15 05:24:31;;;;;;;49.70;26.73;;;;;;;8.25;100.00;100563.03;4776763;29;20569;-88
2020/12/15 05:27:30;;;;;;;53.35;26.63;;;;;;;8.24;100.00;100556.00;4774872;29;20038;-87
2020/12/15 05:30:35;;;;;;;;;;;;;;;;;;;;;
2020/12/15 05:33:13;;;;;;;43.20;23.98;;;;;;;8.28;100.00;100558.41;4751532;29;20962;-88
2020/12/15 05:35:41;;;;;;;40.60;23.35;;;;;;;8.27;100.00;100557.53;4763094;29;20047;-88
2020/12/15 05:38:15;;;;;;;38.88;23.02;;;;;;;8.25;100.00;100562.19;4780047;29;20108;-88
2020/12/15 05:40:55;;;;;;;40.60;25.05;;;;;;;8.24;100.00;100571.22;4759713;29;20574;-87
2020/12/15 05:43:31;;;;;;;34.58;21.77;;;;;;;8.25;100.00;100570.25;4779756;29;20065;-87
2020/12/15 05:46:15;;;;;;;;;;;;;;;;;;;;;
2020/12/15 05:48:47;;;;;;;33.10;21.40;;;;;;;8.25;100.00;100559.50;4765646;29;21614;-87
2020/12/15 05:51:21;;;;;;;32.33;19.70;;;;;;;8.27;100.00;100564.75;4768460;29;20047;-88
2020/12/15 05:54:05;;;;;;;33.63;20.63;;;;;;;8.29;100.00;100566.34;4772316;29;20106;-88
2020/12/15 05:56:34;;;;;;;38.08;20.77;;;;;;;8.30;100.00;100567.16;4763908;29;20055;-87
2020/12/15 05:59:00;;;;;;;34.38;20.98;;;;;;;8.30;100.00;100567.16;4765109;29;20146;-87
2020/12/15 06:01:31;;;;;;;34.30;19.58;;;;;;;8.28;100.00;100566.47;4756689;29;20063;-86
2020/12/15 06:04:00;;;;;;;31.67;19.48;;;;;;;8.31;99.94;100548.28;4760429;29;20051;-86
2020/12/15 06:06:34;;;;;;;31.02;19.77;;;;;;;8.32;99.76;100555.34;4767704;29;20108;-88
2020/12/15 06:09:06;;;;;;;25.15;17.25;;;;;;;8.33;100.00;100557.06;4765796;29;20486;-87
2020/12/15 06:11:59;;;;;;;29.63;19.45;;;;;;;8.33;99.88;100562.41;4765505;29;20435;-87
2020/12/15 06:14:59;;;;;;;32.25;19.00;;;;;;;8.34;100.00;100556.06;4767879;29;20050;-87
2020/12/15 06:17:45;;;;;;;;;;;;;;;;;;;;;
2020/12/15 06:20:37;;;;;;;;;;;;;;;;;;;;;
2020/12/15 06:23:46;;;;;;;;;;;;;;;;;;;;;
2020/12/15 06:27:04;;;;;;;;;;;;;;;;;;;;;
2020/12/15 06:33:01;;;;;;;24.33;16.40;;;;;;;8.36;99.14;100569.34;4769210;29;20080;-87
2020/12/15 06:35:51;;;;;;;24.48;15.25;;;;;;;8.34;99.54;100574.81;4765965;30;20564;-87
2020/12/15 06:38:52;;;;;;;;;;;;;;;;;;;;;
2020/12/15 06:44:44;;;;;;;;;;;;;;;;;;;;;
2020/12/15 06:47:37;;;;;;;23.17;15.82;;;;;;;8.27;99.01;100570.94;4787739;29;20065;-86
2020/12/15 06:50:41;;;;;;;21.63;14.90;;;;;;;8.27;99.52;100568.28;4792183;29;20051;-86
2020/12/15 06:53:15;;;;;;;24.38;15.25;;;;;;;8.30;98.98;100573.38;4742343;29;20043;-87
2020/12/15 06:55:44;;;;;;;27.55;16.67;;;;;;;8.30;99.17;100580.56;4768656;29;20046;-86
2020/12/15 06:58:42;;;;;;;29.42;16.13;;;;;;;8.34;99.11;100582.88;4767238;29;20055;-86
2020/12/15 07:01:34;;;;;;;27.70;15.18;;;;;;;8.36;99.24;100580.94;4788599;29;20133;-86
2020/12/15 07:04:03;;;;;;;23.75;15.32;;;;;;;8.35;99.33;100581.91;4758375;29;20058;-87
2020/12/15 07:06:52;;;;;;;25.48;15.25;;;;;;;8.33;99.18;100591.03;4728734;30;20645;-87
2020/12/15 07:09:40;;;;;;;22.17;14.48;;;;;;;8.30;99.10;100600.19;4738545;30;20525;-88
2020/12/15 07:12:27;;;;;;;24.85;14.98;;;;;;;8.32;99.07;100602.75;4723757;30;20178;-86
2020/12/15 07:15:04;;;;;;;22.08;15.35;;;;;;;8.32;98.97;100603.63;4714821;30;20489;-85
2020/12/15 07:17:38;;;;;;;23.33;14.93;;;;;;;8.34;98.91;100604.31;4715692;30;20419;-84
2020/12/15 07:20:17;;;;;;;22.40;15.07;;;;;;;8.35;99.02;100602.50;4708182;30;20044;-86
2020/12/15 07:22:45;;;;;;;;;;;;;;;8.31;98.86;100607.25;4728659;30;20056;-85
2020/12/15 07:25:33;;;;;;;26.90;15.30;;;;;;;8.33;98.82;100609.81;4718894;30;20370;-86
2020/12/15 07:27:59;;;;;;;22.50;14.48;;;;;;;8.35;98.58;100602.50;4750908;29;20399;-86
2020/12/15 07:31:03;;;;;;;24.63;16.20;;;;;;;8.35;98.47;100608.72;4721188;30;20055;-86
2020/12/15 07:33:44;;;;;;;;;;;;;;;;;;;;;
2020/12/15 07:36:24;;;;;;;22.23;14.07;;;;;;;8.35;98.70;100613.25;4736296;30;20136;-85
2020/12/15 07:38:58;;;;;;;24.05;16.35;;;;;;;8.34;98.50;100607.00;4789239;29;20073;-87
2020/12/15 07:41:42;;;;;;;24.33;14.48;;;;;;;8.35;98.73;100614.09;4762310;29;20047;-86
2020/12/15 07:44:19;;;;;;;23.88;14.95;;;;;;;8.37;98.78;100614.78;4768555;29;20030;-87
2020/12/15 07:46:49;;;;;;;21.55;16.38;;;;;;;8.34;98.53;100617.72;4769314;29;20136;-86
2020/12/15 07:49:17;;;;;;;24.27;15.88;;;;;;;8.36;98.30;100615.78;4774205;29;20058;-84
2020/12/15 07:51:45;;;;;;;21.75;15.40;;;;;;;8.35;98.02;100624.81;4759981;29;20050;-86
2020/12/15 07:54:10;;;;;;;24.98;16.27;;;;;;;8.35;98.57;100624.81;4782145;29;20050;-85
2020/12/15 07:56:39;;;;;;;21.35;15.35;;;;;;;8.32;98.22;100625.06;4754238;29;20049;-87
2020/12/15 07:59:12;;;;;;;23.45;15.98;;;;;;;8.35;98.56;100618.59;4759213;29;20126;-86
2020/12/15 08:01:48;;;;;;;23.48;15.60;;;;;;;8.35;98.26;100626.66;4786373;29;20051;-86
2020/12/15 08:04:43;;;;;;;24.17;15.90;;;;;;;8.34;98.48;100632.97;4780858;29;20393;-86
2020/12/15 08:07:10;;;;;;;25.52;16.27;;;;;;;8.31;98.28;100620.66;4776014;29;20055;-85
2020/12/15 08:09:48;;;;;;;21.08;14.57;;;;;;;8.33;98.49;100621.41;4768826;29;20055;-86
2020/12/15 08:12:19;;;;;;;24.00;16.40;;;;;;;8.31;98.30;100642.13;4769633;29;20042;-86
2020/12/15 08:14:45;;;;;;;25.55;15.38;;;;;;;8.39;98.35;100653.06;4758693;29;20051;-86
2020/12/15 08:17:32;;;;;;;22.48;16.23;;;;;;;8.37;98.65;100656.84;4768885;29;20038;-86
2020/12/15 08:20:07;;;;;;;24.77;16.40;;;;;;;8.36;98.09;100653.34;4782625;29;20075;-88
2020/12/15 08:23:03;;;;;;;;;;;;;;;;;;;;;
2020/12/15 08:25:32;;;;;;;24.30;16.02;;;;;;;8.44;97.83;100666.13;4779047;29;20047;-85
2020/12/15 08:31:46;;;;;;;;;;;;;;;;;;;;;
2020/12/15 08:38:15;;;;;;;24.88;16.15;;;;;;;8.40;98.33;100700.34;4778372;29;20130;-87
2020/12/15 08:40:43;;;;;;;26.17;16.85;;;;;;;8.37;97.89;100705.97;4764543;29;20046;-86
2020/12/15 08:43:12;;;;;;;20.98;14.80;;;;;;;8.37;98.38;100708.66;4747398;29;20537;-86
2020/12/15 08:46:04;;;;;;;22.38;15.55;;;;;;;8.41;98.54;100715.47;4789780;29;20062;-85
2020/12/15 08:48:37;;;;;;;26.02;17.30;;;;;;;8.37;98.51;100713.19;4739898;29;20056;-85
2020/12/15 08:51:17;;;;;;;23.20;16.95;;;;;;;8.36;98.54;100709.66;4779801;29;20428;-86
2020/12/15 08:54:32;;;;;;;25.92;17.35;;;;;;;8.39;98.85;100711.22;4774985;29;20548;-88
2020/12/15 08:56:58;;;;;;;26.13;17.58;;;;;;;8.37;98.60;100711.34;4749740;29;20425;-87
2020/12/15 08:59:33;;;;;;;26.58;18.17;;;;;;;8.37;98.89;100710.50;4775787;29;20092;-86
2020/12/15 09:02:02;;;;;;;28.05;17.90;;;;;;;8.34;99.20;100708.91;4773512;29;20681;-86
2020/12/15 09:04:55;;;;;;;28.10;19.13;;;;;;;8.35;99.04;100721.34;4759025;29;20053;-87
2020/12/15 09:07:42;;;;;;;31.23;21.33;;;;;;;8.31;99.30;100714.53;4757920;29;20642;-87
2020/12/15 09:10:24;;;;;;;33.45;23.15;;;;;;;8.36;99.16;100716.81;4778067;29;20205;-86
2020/12/15 09:12:58;;;;;;;28.45;19.20;;;;;;;8.36;99.05;100717.69;4760775;29;20050;-86
2020/12/15 09:15:27;;;;;;;34.20;20.45;;;;;;;8.34;99.27;100718.78;4784406;29;21166;-86
2020/12/15 09:18:51;;;;;;;34.55;19.90;;;;;;;8.36;99.47;100733.78;4765912;29;20039;-86
2020/12/15 09:21:25;;;;;;;31.95;19.00;;;;;;;8.41;99.41;100739.63;4735539;30;20126;-87
2020/12/15 09:24:06;;;;;;;31.80;20.63;;;;;;;8.37;99.58;100740.84;4750768;30;20047;-86
2020/12/15 09:26:43;;;;;;;31.55;21.23;;;;;;;8.37;99.57;100734.63;4740149;29;20560;-86
2020/12/15 09:29:18;;;;;;;31.17;20.20;;;;;;;8.38;99.45;100739.03;4761596;29;20051;-86
2020/12/15 09:32:18;;;;;;;31.20;19.92;;;;;;;8.38;99.51;100758.63;4782665;29;20104;-85
2020/12/15 09:35:36;;;;;;;33.83;20.20;;;;;;;8.37;99.95;100764.13;4752028;29;20072;-85
2020/12/15 09:38:23;;;;;;;;;;;;;;;;;;;;;
2020/12/15 09:41:56;;;;;;;34.95;20.58;;;;;;;8.42;99.41;100767.28;4786434;29;20038;-87
2020/12/15 09:44:38;;;;;;;28.42;19.83;;;;;;;8.42;99.45;100756.53;4776741;29;20045;-93
2020/12/15 09:47:26;;;;;;;28.52;20.77;;;;;;;8.42;99.52;100749.38;4762384;29;20047;-86
2020/12/15 09:49:51;;;;;;;38.28;21.20;;;;;;;8.46;99.93;100754.53;4795406;29;20522;-85
2020/12/15 09:52:26;;;;;;;34.67;22.50;;;;;;;8.49;99.63;100751.59;4773161;29;20051;-92
2020/12/15 09:54:55;;;;;;;33.50;20.75;;;;;;;8.53;99.58;100753.03;4797621;29;20048;-86
2020/12/15 09:57:37;;;;;;;33.25;22.17;;;;;;;8.52;99.73;100754.00;4772633;29;20066;-86
2020/12/15 10:00:23;;;;;;;33.22;21.20;;;;;;;8.57;99.58;100759.88;4774346;29;20043;-90
2020/12/15 10:02:58;;;;;;;34.28;21.30;;;;;;;8.53;99.65;100769.13;4792068;29;20050;-88
2020/12/15 10:05:27;;;;;;;33.58;21.63;;;;;;;8.58;99.53;100766.91;4781821;29;20089;-87
2020/12/15 10:08:24;;;;;;;32.77;21.97;;;;;;;8.56;99.60;100771.56;4777583;29;20505;-87
2020/12/15 10:10:53;;;;;;;34.13;21.85;;;;;;;8.53;99.31;100761.94;4753884;29;20051;-86
2020/12/15 10:13:30;;;;;;;33.05;21.65;;;;;;;8.56;99.36;100761.69;4774718;29;20417;-86
2020/12/15 10:16:13;;;;;;;28.95;19.75;;;;;;;8.60;99.62;100773.03;4787686;29;20043;-93
2020/12/15 10:18:48;;;;;;;31.75;22.20;;;;;;;8.55;99.58;100777.91;4752319;29;20047;-87
2020/12/15 10:21:29;;;;;;;34.70;22.50;;;;;;;8.63;99.32;100777.25;4768918;29;20058;-87
2020/12/15 10:27:39;;;;;;;31.25;21.25;;;;;;;8.63;99.44;100783.50;4784736;29;20046;-94
2020/12/15 10:30:12;;;;;;;33.80;21.35;;;;;;;8.58;99.78;100774.97;4776130;29;20059;-87
2020/12/15 10:35:51;;;;;;;36.97;22.77;;;;;;;8.66;99.45;100783.25;4770894;29;20055;-87
2020/12/15 10:38:39;;;;;;;33.45;21.80;;;;;;;8.74;99.23;100786.13;4740335;29;20047;-87
2020/12/15 10:41:07;;;;;;;34.03;22.02;;;;;;;8.76;99.59;100788.72;4790861;29;20095;-87
2020/12/15 10:43:42;;;;;;;32.88;21.95;;;;;;;8.87;99.18;100791.34;4719994;30;20060;-86
2020/12/15 10:46:37;;;;;;;34.47;23.15;;;;;;;8.84;98.80;100791.63;4746449;29;20077;-86
2020/12/15 10:49:14;;;;;;;32.17;22.05;;;;;;;8.83;98.94;100783.69;4753245;29;20108;-87
2020/12/15 10:52:17;;;;;;;38.20;23.67;;;;;;;8.87;99.33;100786.00;4754741;30;20043;-87
2020/12/15 10:55:02;;;;;;;37.13;23.38;;;;;;;8.89;99.25;100778.69;4765112;29;20055;-86
2020/12/15 10:57:58;;;;;;;32.38;22.35;;;;;;;8.89;99.29;100783.19;4735558;29;20051;-87
2020/12/15 11:03:29;;;;;;;33.65;20.88;;;;;;;8.93;98.81;100787.31;4760963;29;20120;-87
2020/12/15 11:06:05;;;;;;;35.33;21.67;;;;;;;8.92;99.21;100788.28;4750002;29;20073;-85
2020/12/15 11:08:33;;;;;;;33.88;21.45;;;;;;;8.96;98.79;100788.91;4739406;30;20116;-87
2020/12/15 11:11:34;;;;;;;32.33;20.33;;;;;;;9.00;98.56;100779.63;4764216;29;20128;-87
2020/12/15 11:14:04;;;;;;;31.10;20.75;;;;;;;9.01;98.73;100776.81;4761820;29;20640;-86
2020/12/15 11:16:59;;;;;;;34.15;21.20;;;;;;;9.07;98.66;100784.34;4768151;29;20094;-86
2020/12/15 11:19:33;;;;;;;36.05;21.98;;;;;;;9.08;98.52;100794.09;4806814;29;20095;-86
2020/12/15 11:22:06;;;;;;;31.42;22.08;;;;;;;9.07;98.59;100796.94;4765661;30;20127;-86
2020/12/15 11:24:56;;;;;;;33.13;20.58;;;;;;;9.02;98.44;100789.22;4752895;29;20058;-92
2020/12/15 11:27:48;;;;;;;32.22;21.27;;;;;;;9.00;98.44;100801.09;4776000;29;20193;-86
2020/12/15 11:30:32;;;;;;;34.58;21.52;;;;;;;8.99;98.33;100800.22;4772816;29;20523;-92
2020/12/15 11:33:10;;;;;;;33.67;22.20;;;;;;;8.96;98.53;100805.84;4787280;29;20035;-86
2020/12/15 11:36:14;;;;;;;38.03;22.65;;;;;;;8.97;98.53;100801.34;4741462;29;20074;-86
2020/12/15 11:39:03;;;;;;;33.92;22.17;;;;;;;9.05;98.48;100788.97;4782829;29;20111;-87
2020/12/15 11:42:09;;;;;;;32.78;22.50;;;;;;;9.00;98.47;100799.25;4781090;29;20138;-93
2020/12/15 11:44:41;;;;;;;35.40;21.58;;;;;;;9.15;98.46;100798.97;4747480;30;20050;-87
2020/12/15 11:47:29;;;;;;;37.35;23.50;;;;;;;9.05;98.39;100788.97;4798342;29;20054;-93
2020/12/15 11:50:18;;;;;;;36.15;22.98;;;;;;;9.19;98.22;100801.25;4796564;29;20189;-86
2020/12/15 11:53:00;;;;;;;36.63;23.15;;;;;;;9.09;98.15;100803.84;4746940;30;20071;-94
2020/12/15 11:55:31;;;;;;;40.03;23.08;;;;;;;9.05;98.63;100802.41;4782835;29;20042;-86
2020/12/15 11:58:00;;;;;;;35.72;23.42;;;;;;;9.10;98.57;100796.66;4769506;29;20050;-86
2020/12/15 12:00:52;;;;;;;38.35;23.70;;;;;;;9.07;98.36;100813.88;4771506;29;20526;-87
2020/12/15 12:03:27;;;;;;;37.30;23.63;;;;;;;9.17;98.35;100816.66;4783834;29;20043;-87
2020/12/15 12:05:58;;;;;;;33.08;22.42;;;;;;;9.18;98.02;100809.44;4770666;29;20035;-86
2020/12/15 12:09:08;;;;;;;33.80;21.95;;;;;;;9.17;98.16;100824.72;4773382;29;20133;-88
2020/12/15 12:11:39;;;;;;;36.40;22.98;;;;;;;9.17;97.87;100818.47;4804108;29;20397;-86
2020/12/15 12:14:25;;;;;;;39.33;23.83;;;;;;;9.12;98.20;100816.16;4762314;29;20396;-88
2020/12/15 12:17:04;;;;;;;34.83;22.42;;;;;;;9.14;97.95;100818.72;4786432;29;20038;-87
2020/12/15 12:19:43;;;;;;;;;;;;;;;;;;;;;
2020/12/15 12:22:43;;;;;;;34.25;24.25;;;;;;;9.10;98.32;100831.56;4784273;29;20049;-93
2020/12/15 12:25:37;;;;;;;38.72;23.95;;;;;;;9.08;98.30;100839.75;4790276;29;20043;-87
2020/12/15 12:28:08;;;;;;;40.22;22.50;;;;;;;9.07;98.45;100831.81;4763126;29;20070;-87
2020/12/15 12:30:39;;;;;;;38.67;24.02;;;;;;;9.08;98.53;100831.69;4778471;29;20086;-86
2020/12/15 12:33:48;;;;;;;39.20;23.45;;;;;;;9.07;98.71;100829.13;4762185;29;20047;-87
2020/12/15 12:39:34;;;;;;;38.53;23.30;;;;;;;9.05;98.89;100831.09;4798806;29;20107;-87
2020/12/15 12:42:12;;;;;;;39.13;25.23;;;;;;;9.08;99.15;100834.38;4770027;29;20073;-88
2020/12/15 12:45:34;;;;;;;43.40;25.98;;;;;;;9.10;98.91;100826.19;4761928;29;20069;-94
2020/12/15 12:52:23;;;;;;;;;;;;;;;;;;;;;
2020/12/15 13:11:01;;;;;;;46.15;26.92;;;;;;;9.15;99.08;100847.28;4847035;24;20050;-87
2020/12/15 13:13:39;;;;;;;45.58;26.95;;;;;;;9.13;99.35;100852.78;4835744;29;20064;-87